createdAt,value
2023-03-22T00:01:37.829Z,6.03
2023-03-22T00:04:04.679Z,5.95
2023-03-22T00:06:31.500Z,5.53
2023-03-22T00:08:58.269Z,5.68
2023-03-22T00:11:25.889Z,5.32
2023-03-22T00:13:53.773Z,5.63
2023-03-22T00:16:21.877Z,5.95
2023-03-22T00:18:48.761Z,5.53
2023-03-22T00:21:16.780Z,5.50
2023-03-22T00:23:44.115Z,5.55
2023-03-22T00:26:12.519Z,5.45
2023-03-22T00:28:39.944Z,5.95
2023-03-22T00:31:07.543Z,5.40
2023-03-22T00:33:34.255Z,5.63
2023-03-22T00:36:04.523Z,5.43
2023-03-22T00:38:44.871Z,4.95
2023-03-22T00:41:21.034Z,5.68
2023-03-22T00:43:48.562Z,5.38
2023-03-22T00:46:16.692Z,5.47
2023-03-22T00:48:43.685Z,5.85
2023-03-22T00:51:10.982Z,5.00
2023-03-22T00:53:42.344Z,5.70
2023-03-22T00:56:10.895Z,5.03
2023-03-22T00:58:37.598Z,4.80
2023-03-22T01:01:04.516Z,4.95
2023-03-22T01:03:31.236Z,5.15
2023-03-22T01:05:58.054Z,5.20
2023-03-22T01:08:25.024Z,5.57
2023-03-22T01:10:51.979Z,5.22
2023-03-22T01:13:19.100Z,5.05
2023-03-22T01:15:47.950Z,5.75
2023-03-22T01:18:14.735Z,5.10
2023-03-22T01:20:41.854Z,5.25
2023-03-22T01:23:08.878Z,4.97
2023-03-22T01:25:38.307Z,5.10
2023-03-22T01:28:06.906Z,5.20
2023-03-22T01:30:33.731Z,5.07
2023-03-22T01:33:00.585Z,5.22
2023-03-22T01:35:30.952Z,5.20
2023-03-22T01:37:57.637Z,5.00
2023-03-22T01:40:24.430Z,4.88
2023-03-22T01:42:53.238Z,4.95
2023-03-22T01:45:42.119Z,4.65
2023-03-22T01:48:15.580Z,5.00
2023-03-22T01:50:46.161Z,4.68
2023-03-22T01:53:14.851Z,5.22
2023-03-22T01:55:42.680Z,5.03
2023-03-22T01:58:09.835Z,4.60
2023-03-22T02:00:37.136Z,4.60
2023-03-22T02:03:05.566Z,4.43
2023-03-22T02:05:34.616Z,5.30
2023-03-22T02:08:02.817Z,4.78
2023-03-22T02:10:29.544Z,5.20
2023-03-22T02:13:19.010Z,5.10
2023-03-22T02:16:08.759Z,5.10
2023-03-22T02:19:18.658Z,5.20
2023-03-22T02:22:00.580Z,4.97
2023-03-22T02:25:09.269Z,4.90
2023-03-22T02:27:47.070Z,5.35
2023-03-22T02:30:19.698Z,5.20
2023-03-22T02:33:10.167Z,5.10
2023-03-22T02:35:46.230Z,5.32
2023-03-22T02:38:31.241Z,4.97
2023-03-22T02:41:12.148Z,5.22
2023-03-22T02:44:01.112Z,4.85
2023-03-22T02:46:59.934Z,5.30
2023-03-22T02:49:41.573Z,5.13
2023-03-22T02:52:17.627Z,5.00
2023-03-22T02:54:53.421Z,4.95
2023-03-22T02:57:33.094Z,4.40
2023-03-22T03:00:01.420Z,4.68
2023-03-22T03:02:30.761Z,5.57
2023-03-22T03:04:57.983Z,4.43
2023-03-22T03:07:27.463Z,4.90
2023-03-22T03:09:54.483Z,4.93
2023-03-22T03:12:24.185Z,4.90
2023-03-22T03:14:50.986Z,5.13
2023-03-22T03:17:36.041Z,4.80
2023-03-22T03:20:24.251Z,4.93
2023-03-22T03:23:13.857Z,4.68
2023-03-22T03:26:13.617Z,4.70
2023-03-22T03:28:55.484Z,4.70
2023-03-22T03:31:37.352Z,5.05
2023-03-22T03:34:10.966Z,4.93
2023-03-22T03:36:42.366Z,5.15
2023-03-22T03:39:12.753Z,5.32
2023-03-22T03:41:42.850Z,5.18
2023-03-22T03:44:10.670Z,5.10
2023-03-22T03:46:37.524Z,5.20
2023-03-22T03:49:05.312Z,5.03
2023-03-22T03:51:33.515Z,4.47
2023-03-22T03:54:00.122Z,4.78
2023-03-22T03:56:26.699Z,5.40
2023-03-22T03:58:53.320Z,4.53
2023-03-22T04:01:20.752Z,4.88
2023-03-22T04:03:50.663Z,4.70
2023-03-22T04:06:17.473Z,5.25
2023-03-22T04:08:45.594Z,5.05
2023-03-22T04:11:12.378Z,4.45
2023-03-22T04:13:38.923Z,4.32
2023-03-22T04:16:06.015Z,4.53
2023-03-22T04:18:32.757Z,4.32
2023-03-22T04:20:59.398Z,4.70
2023-03-22T04:23:26.170Z,4.28
2023-03-22T04:25:53.658Z,4.57
2023-03-22T04:28:20.370Z,3.67
2023-03-22T04:30:51.960Z,4.78
2023-03-22T04:33:19.709Z,4.15
2023-03-22T04:35:46.471Z,4.40
2023-03-22T04:38:13.045Z,4.88
2023-03-22T04:40:47.055Z,4.28
2023-03-22T04:43:13.952Z,4.80
2023-03-22T04:45:42.246Z,4.63
2023-03-22T04:48:10.565Z,4.60
2023-03-22T04:50:38.830Z,4.68
2023-03-22T04:53:06.230Z,4.32
2023-03-22T04:55:34.209Z,4.93
2023-03-22T04:58:00.824Z,4.70
2023-03-22T05:00:30.232Z,4.53
2023-03-22T05:02:57.891Z,4.70
2023-03-22T05:05:24.788Z,4.47
2023-03-22T05:07:51.574Z,4.50
2023-03-22T05:10:18.267Z,4.53
2023-03-22T05:12:45.000Z,4.18
2023-03-22T05:15:11.673Z,4.18
2023-03-22T05:17:38.210Z,4.50
2023-03-22T05:20:10.123Z,4.50
2023-03-22T05:22:40.561Z,4.90
2023-03-22T05:25:10.280Z,4.07
2023-03-22T05:27:39.033Z,4.20
2023-03-22T05:30:07.217Z,4.18
2023-03-22T05:32:33.784Z,3.88
2023-03-22T05:35:04.781Z,3.83
2023-03-22T05:37:31.951Z,4.07
2023-03-22T05:39:58.539Z,4.05
2023-03-22T05:42:26.047Z,3.58
2023-03-22T05:44:52.605Z,3.83
2023-03-22T05:47:19.414Z,4.50
2023-03-22T05:49:46.972Z,5.07
2023-03-22T05:52:13.645Z,3.78
2023-03-22T05:54:40.298Z,3.65
2023-03-22T05:57:06.846Z,3.85
2023-03-22T05:59:33.596Z,3.92
2023-03-22T06:02:00.244Z,3.78
2023-03-22T06:04:26.877Z,4.05
2023-03-22T06:06:53.999Z,3.75
2023-03-22T06:09:20.852Z,3.53
2023-03-22T06:11:47.483Z,3.80
2023-03-22T06:14:14.074Z,3.80
2023-03-22T06:16:41.062Z,3.90
2023-03-22T06:19:07.713Z,3.38
2023-03-22T06:21:34.339Z,3.80
2023-03-22T06:24:01.401Z,3.38
2023-03-22T06:26:27.971Z,3.90
2023-03-22T06:28:54.537Z,3.95
2023-03-22T06:31:21.207Z,3.78
2023-03-22T06:33:48.125Z,3.88
2023-03-22T06:36:14.728Z,3.88
2023-03-22T06:38:41.333Z,3.92
2023-03-22T06:41:07.934Z,4.28
2023-03-22T06:43:34.536Z,3.80
2023-03-22T06:46:01.228Z,3.20
2023-03-22T06:48:28.166Z,3.10
2023-03-22T06:50:54.765Z,3.50
2023-03-22T06:53:21.612Z,3.83
2023-03-22T06:55:48.208Z,3.05
2023-03-22T06:58:14.779Z,3.08
2023-03-22T07:00:41.633Z,2.75
2023-03-22T07:03:08.493Z,3.28
2023-03-22T07:05:35.092Z,3.17
2023-03-22T07:08:01.927Z,3.20
2023-03-22T07:10:29.193Z,3.22
2023-03-22T07:12:55.887Z,3.63
2023-03-22T07:15:24.686Z,2.80
2023-03-22T07:17:52.207Z,3.00
2023-03-22T07:20:19.831Z,3.38
2023-03-22T07:22:46.582Z,3.60
2023-03-22T07:25:13.169Z,2.70
2023-03-22T07:27:39.738Z,4.00
2023-03-22T07:30:09.376Z,2.72
2023-03-22T07:32:36.503Z,3.67
2023-03-22T07:35:06.894Z,2.95
2023-03-22T07:37:33.965Z,2.80
2023-03-22T07:40:00.522Z,2.72
2023-03-22T07:42:27.065Z,2.90
2023-03-22T07:44:54.034Z,2.53
2023-03-22T07:47:37.778Z,2.53
2023-03-22T07:50:07.326Z,2.50
2023-03-22T07:52:34.036Z,2.50
2023-03-22T07:55:00.538Z,2.53
2023-03-22T07:57:27.151Z,2.50
2023-03-22T07:59:53.780Z,2.50
2023-03-22T08:02:20.527Z,2.67
2023-03-22T08:04:49.599Z,2.60
2023-03-22T08:07:18.640Z,2.55
2023-03-22T08:09:46.200Z,2.38
2023-03-22T08:12:12.855Z,2.47
2023-03-22T08:14:39.474Z,2.38
2023-03-22T08:17:06.195Z,2.60
2023-03-22T08:19:33.769Z,2.60
2023-03-22T08:22:03.764Z,2.30
2023-03-22T08:24:30.340Z,3.08
2023-03-22T08:26:57.662Z,2.78
2023-03-22T08:29:24.539Z,2.35
2023-03-22T08:31:51.477Z,2.78
2023-03-22T08:34:18.226Z,3.13
2023-03-22T08:36:44.854Z,2.90
2023-03-22T08:39:11.446Z,2.78
2023-03-22T08:41:39.688Z,3.17
2023-03-22T08:44:06.460Z,2.70
2023-03-22T08:46:33.202Z,2.90
2023-03-22T08:49:01.050Z,2.95
2023-03-22T08:51:27.724Z,3.45
2023-03-22T08:53:54.332Z,2.92
2023-03-22T08:56:22.780Z,2.60
2023-03-22T08:58:49.327Z,2.67
2023-03-22T09:01:17.887Z,3.17
2023-03-22T09:03:44.570Z,2.58
2023-03-22T09:06:11.308Z,2.92
2023-03-22T09:08:42.123Z,3.65
2023-03-22T09:11:10.401Z,3.03
2023-03-22T09:13:37.422Z,3.22
2023-03-22T09:16:05.558Z,3.10
2023-03-22T09:18:32.275Z,3.30
2023-03-22T09:20:58.881Z,3.10
2023-03-22T09:23:25.513Z,3.38
2023-03-22T09:25:52.220Z,3.03
2023-03-22T09:28:19.199Z,2.80
2023-03-22T09:30:45.919Z,2.97
2023-03-22T09:33:13.700Z,2.53
2023-03-22T09:35:42.668Z,3.00
2023-03-22T09:38:10.242Z,3.03
2023-03-22T09:40:46.817Z,2.83
2023-03-22T09:43:18.363Z,2.78
2023-03-22T09:45:50.119Z,3.00
2023-03-22T09:48:28.939Z,2.80
2023-03-22T09:50:56.132Z,3.08
2023-03-22T09:53:26.750Z,3.10
2023-03-22T09:56:14.877Z,2.80
2023-03-22T09:58:50.671Z,3.20
2023-03-22T10:01:35.218Z,3.33
2023-03-22T10:04:26.412Z,2.70
2023-03-22T10:07:48.409Z,2.50
2023-03-22T10:10:18.861Z,3.25
2023-03-22T10:13:00.762Z,2.67
2023-03-22T10:15:39.791Z,2.42
2023-03-22T10:18:11.649Z,2.50
2023-03-22T10:20:56.993Z,3.40
2023-03-22T10:23:44.224Z,2.83
2023-03-22T10:26:31.738Z,3.22
2023-03-22T10:29:06.046Z,3.05
2023-03-22T10:31:34.060Z,2.85
2023-03-22T10:34:11.605Z,2.90
2023-03-22T10:36:40.498Z,3.40
2023-03-22T10:39:19.367Z,2.72
2023-03-22T10:41:47.394Z,2.90
2023-03-22T10:44:17.563Z,3.10
2023-03-22T10:46:45.896Z,3.00
2023-03-22T10:49:27.565Z,2.45
2023-03-22T10:51:58.063Z,2.92
2023-03-22T10:54:26.252Z,2.40
2023-03-22T10:56:53.024Z,2.58
2023-03-22T10:59:47.280Z,2.85
2023-03-22T11:02:22.402Z,3.00
2023-03-22T11:04:54.816Z,2.95
2023-03-22T11:07:33.669Z,2.70
2023-03-22T11:10:09.445Z,2.10
2023-03-22T11:12:40.150Z,2.20
2023-03-22T11:15:18.200Z,2.20
2023-03-22T11:17:44.849Z,2.45
2023-03-22T11:20:16.655Z,1.85
2023-03-22T11:22:46.284Z,1.98
2023-03-22T11:25:22.715Z,2.10
2023-03-22T11:28:06.034Z,1.98
2023-03-22T11:30:34.115Z,2.13
2023-03-22T11:33:21.468Z,1.95
2023-03-22T11:35:58.405Z,2.17
2023-03-22T11:38:31.141Z,1.90
2023-03-22T11:41:01.574Z,1.90
2023-03-22T11:43:35.111Z,2.22
2023-03-22T11:46:02.718Z,1.80
2023-03-22T11:48:32.155Z,1.90
2023-03-22T11:51:08.493Z,2.13
2023-03-22T11:53:38.434Z,2.00
2023-03-22T11:56:07.735Z,1.67
2023-03-22T11:58:37.494Z,1.48
2023-03-22T12:01:05.154Z,1.77
2023-03-22T12:03:39.105Z,1.90
2023-03-22T12:06:32.224Z,1.65
2023-03-22T12:09:05.420Z,1.60
2023-03-22T12:11:37.794Z,1.70
2023-03-22T12:14:29.329Z,1.60
2023-03-22T12:17:10.927Z,1.50
2023-03-22T12:19:50.163Z,1.67
2023-03-22T12:22:21.073Z,1.42
2023-03-22T12:24:47.772Z,1.20
2023-03-22T12:27:24.511Z,1.17
2023-03-22T12:30:03.062Z,1.33
2023-03-22T12:32:34.809Z,1.20
2023-03-22T12:35:34.765Z,1.60
2023-03-22T12:37:55.454Z,1.17
2023-03-22T12:40:36.689Z,1.60
2023-03-22T12:43:05.974Z,1.50
2023-03-22T12:45:39.488Z,1.50
2023-03-22T12:48:36.169Z,1.60
2023-03-22T12:51:08.882Z,1.40
2023-03-22T12:53:42.491Z,1.55
2023-03-22T12:56:16.386Z,1.38
2023-03-22T12:58:48.539Z,1.83
2023-03-22T13:01:45.666Z,1.42
2023-03-22T13:04:38.613Z,1.50
2023-03-22T13:07:37.720Z,1.25
2023-03-22T13:10:29.457Z,1.08
2023-03-22T13:13:23.146Z,1.40
2023-03-22T13:16:10.923Z,1.10
2023-03-22T13:18:40.744Z,1.15
2023-03-22T13:21:16.538Z,1.40
2023-03-22T13:24:15.517Z,1.27
2023-03-22T13:26:58.668Z,1.10
2023-03-22T13:29:38.278Z,1.30
2023-03-22T13:32:28.581Z,1.30
2023-03-22T13:34:56.449Z,1.20
2023-03-22T13:37:34.982Z,1.45
2023-03-22T13:40:12.817Z,1.50
2023-03-22T13:42:41.168Z,1.00
2023-03-22T13:45:27.409Z,1.17
2023-03-22T13:48:12.696Z,1.00
2023-03-22T13:50:40.085Z,1.00
2023-03-22T13:53:16.265Z,1.00
2023-03-22T13:55:48.935Z,1.10
2023-03-22T13:58:33.116Z,1.30
2023-03-22T14:01:00.373Z,1.40
2023-03-22T14:03:35.061Z,1.48
2023-03-22T14:06:14.703Z,1.13
2023-03-22T14:08:44.324Z,1.50
2023-03-22T14:11:29.846Z,1.35
2023-03-22T14:14:04.823Z,1.40
2023-03-22T14:16:43.679Z,1.30
2023-03-22T14:19:18.290Z,1.15
